Jp Tsubaki — JD2817 — position and weather

sailwx.info

Track history (hours):
 
Tides and Currents Weather Stations Pressure Air Temp Water Temp Dewpoint Dewpoint Depression Visibility Wind Speed Wind Dir Waves Ship Positions

Jp Tsubaki

Last reported at 2016-Sep-29 23:32 UTC. Time now 2016-Sep-29 23:48 UTC.
Position N 35°24' E 139°39'.

Length 115 m; draft 6.5 m.

Type: Cargo ship. MMSI: 431000734.

Date/timePositionNaut miles runAvg speedWind from/ knotsBaromVisibWave heightAir tempDewpointWater temp
2016-Sep-29 23:32N 35°24' E 139°39'0 0.0
2016-Sep-29 21:32N 35°24' E 139°39'0 0.0
2016-Sep-29 20:32N 35°24' E 139°39'0 0.0
2016-Sep-29 19:32N 35°24' E 139°39'0 0.0
2016-Sep-29 16:29N 35°24' E 139°39'0 0.0
2016-Sep-29 15:32N 35°24' E 139°39'0 0.0
2016-Sep-29 14:32N 35°24' E 139°39'0 0.0
2016-Sep-29 13:33N 35°24' E 139°39'7 1.4
2016-Sep-29 08:33N 35°30' E 139°43'0 0.0
2016-Sep-29 07:33N 35°30' E 139°43'7 1.0
2016-Sep-29 00:33N 35°24' E 139°39'0 0.0
2016-Sep-28 21:33N 35°24' E 139°39'0 0.0
2016-Sep-28 19:33N 35°24' E 139°39'0 0.0
2016-Sep-28 16:33N 35°24' E 139°39'0 0.0
2016-Sep-28 15:33N 35°24' E 139°39'5 1.5
2016-Sep-28 12:33N 35°23' E 139°44'0 0.0
2016-Sep-28 08:33N 35°23' E 139°44'3 0.7
2016-Sep-28 03:27N 35°24' E 139°40'0 0.0
2016-Sep-28 02:33N 35°24' E 139°40'0 0.0
2016-Sep-28 01:33N 35°24' E 139°40'0 0.0
2016-Sep-27 23:33N 35°24' E 139°40'3 0.8
2016-Sep-27 19:33N 35°23' E 139°44'0 0.0
2016-Sep-27 14:33N 35°23' E 139°44'1 0.8
2016-Sep-27 13:33N 35°23' E 139°43'4 1.2
2016-Sep-27 10:34N 35°24' E 139°39'0 0.0
2016-Sep-27 00:31N 35°24' E 139°39'1 0.3
2016-Sep-26 20:31N 35°24' E 139°40'0 0.0
2016-Sep-26 19:31N 35°24' E 139°40'0 0.0
2016-Sep-26 15:31N 35°24' E 139°40'0 0.0
2016-Sep-26 13:31N 35°24' E 139°40'0 0.0
2016-Sep-26 11:31N 35°24' E 139°40'0 0.0
2016-Sep-26 08:31N 35°24' E 139°40'1 0.2
2016-Sep-26 02:31N 35°24' E 139°39'0 0.0
2016-Sep-26 01:31N 35°24' E 139°39'0 0.0
2016-Sep-26 00:31N 35°24' E 139°39'0 0.0
2016-Sep-25 21:28N 35°24' E 139°39'0 0.0
2016-Sep-25 17:28N 35°24' E 139°39'0 0.0
2016-Sep-25 16:28N 35°24' E 139°39'0 0.0
2016-Sep-25 15:28N 35°24' E 139°39'0 0.0
2016-Sep-25 14:31N 35°24' E 139°39'2 1.3
2016-Sep-25 12:33N 35°24' E 139°42'7 6.9
2016-Sep-25 11:34N 35°30' E 139°45'1 0.5
2016-Sep-25 10:33N 35°30' E 139°44'0 0.0
2016-Sep-25 09:33N 35°30' E 139°44'0 0.0
2016-Sep-25 07:33N 35°30' E 139°44'0 0.0
2016-Sep-25 04:33N 35°30' E 139°44'0 0.0
2016-Sep-25 00:33N 35°30' E 139°44'6 3.1
2016-Sep-24 22:32N 35°24' E 139°45'0 0.0
2016-Sep-24 21:32N 35°24' E 139°45'0 0.0
2016-Sep-24 19:32N 35°24' E 139°45'0 0.0
2016-Sep-24 18:32N 35°24' E 139°45'0 0.0
2016-Sep-24 17:32N 35°24' E 139°45'0 0.0
2016-Sep-24 16:29N 35°24' E 139°45'0 0.0
2016-Sep-24 14:32N 35°24' E 139°45'6 2.8
2016-Sep-24 12:34N 35°24' E 139°39'0 0.0
2016-Sep-24 10:31N 35°24' E 139°39'0 0.0
2016-Sep-24 09:31N 35°24' E 139°39'0 0.0
2016-Sep-24 03:31N 35°24' E 139°39'0 0.0
2016-Sep-24 02:31N 35°24' E 139°39'0 0.0
2016-Sep-24 01:31N 35°24' E 139°39'0 0.0
2016-Sep-24 00:31N 35°24' E 139°39'0 0.0
2016-Sep-23 19:28N 35°24' E 139°39'0 0.0
2016-Sep-23 17:31N 35°24' E 139°39'0 0.0
2016-Sep-23 16:31N 35°24' E 139°39'0 0.0
2016-Sep-23 15:31N 35°24' E 139°39'0 0.0
2016-Sep-23 13:31N 35°24' E 139°39'0 0.0
2016-Sep-23 09:31N 35°24' E 139°39'0 0.0
2016-Sep-23 06:33N 35°24' E 139°39'7 3.4
2016-Sep-23 04:33N 35°30' E 139°43'0 0.0
2016-Sep-23 03:32N 35°30' E 139°43'0 0.0
2016-Sep-23 02:32N 35°30' E 139°43'0 0.0
2016-Sep-23 01:32N 35°30' E 139°43'0 0.0
2016-Sep-23 00:32N 35°30' E 139°43'0 0.0
2016-Sep-22 23:32N 35°30' E 139°43'7 2.4
2016-Sep-22 20:31N 35°22' E 139°44'4 0.5
2016-Sep-22 12:33N 35°24' E 139°39'10 1.2
2016-Sep-22 04:31N 35°26' E 139°51'0 0.0
2016-Sep-22 03:31N 35°26' E 139°51'0 0.0
2016-Sep-22 00:31N 35°26' E 139°51'0 0.0
2016-Sep-21 23:34N 35°26' E 139°51'0 0.0
2016-Sep-21 22:34N 35°26' E 139°51'0 0.0
2016-Sep-21 19:31N 35°26' E 139°51'0 0.0
2016-Sep-21 16:31N 35°26' E 139°51'0 0.0
2016-Sep-21 09:31N 35°26' E 139°51'0 0.0
2016-Sep-21 08:31N 35°26' E 139°51'0 0.0
2016-Sep-21 05:31N 35°27' E 139°51'0 0.0
2016-Sep-21 03:31N 35°26' E 139°51'0 0.0
2016-Sep-21 02:31N 35°26' E 139°51'0 0.0
2016-Sep-20 17:33N 35°27' E 139°51'0 0.0
2016-Sep-20 14:34N 35°26' E 139°51'0 0.0
2016-Sep-20 13:33N 35°26' E 139°51'0 0.0
2016-Sep-20 10:32N 35°26' E 139°51'0 0.0
2016-Sep-20 08:32N 35°27' E 139°51'0 0.1
2016-Sep-20 07:32N 35°27' E 139°50'0 0.0
2016-Sep-20 06:32N 35°27' E 139°50'7 1.7
2016-Sep-20 02:33N 35°30' E 139°43'0 0.0
2016-Sep-19 23:33N 35°30' E 139°43'  
Track history (hours):
 
Tides and Currents Weather Stations Pressure Air Temp Water Temp Dewpoint Dewpoint Depression Visibility Wind Speed Wind Dir Waves Ship Positions

Jp Tsubaki

Last reported at 2016-Sep-29 23:32 UTC. Time now 2016-Sep-29 23:48 UTC.
Position N 35°24' E 139°39'.

Length 115 m; draft 6.5 m.

Type: Cargo ship. MMSI: 431000734.

Date/timePositionNaut miles runAvg speedWind from/ knotsBaromVisibWave heightAir tempDewpointWater temp
2016-Sep-29 23:32N 35°24' E 139°39'0 0.0
2016-Sep-29 21:32N 35°24' E 139°39'0 0.0
2016-Sep-29 20:32N 35°24' E 139°39'0 0.0
2016-Sep-29 19:32N 35°24' E 139°39'0 0.0
2016-Sep-29 16:29N 35°24' E 139°39'0 0.0
2016-Sep-29 15:32N 35°24' E 139°39'0 0.0
2016-Sep-29 14:32N 35°24' E 139°39'0 0.0
2016-Sep-29 13:33N 35°24' E 139°39'7 1.4
2016-Sep-29 08:33N 35°30' E 139°43'0 0.0
2016-Sep-29 07:33N 35°30' E 139°43'7 1.0
2016-Sep-29 00:33N 35°24' E 139°39'0 0.0
2016-Sep-28 21:33N 35°24' E 139°39'0 0.0
2016-Sep-28 19:33N 35°24' E 139°39'0 0.0
2016-Sep-28 16:33N 35°24' E 139°39'0 0.0
2016-Sep-28 15:33N 35°24' E 139°39'5 1.5
2016-Sep-28 12:33N 35°23' E 139°44'0 0.0
2016-Sep-28 08:33N 35°23' E 139°44'3 0.7
2016-Sep-28 03:27N 35°24' E 139°40'0 0.0
2016-Sep-28 02:33N 35°24' E 139°40'0 0.0
2016-Sep-28 01:33N 35°24' E 139°40'0 0.0
2016-Sep-27 23:33N 35°24' E 139°40'3 0.8
2016-Sep-27 19:33N 35°23' E 139°44'0 0.0
2016-Sep-27 14:33N 35°23' E 139°44'1 0.8
2016-Sep-27 13:33N 35°23' E 139°43'4 1.2
2016-Sep-27 10:34N 35°24' E 139°39'0 0.0
2016-Sep-27 00:31N 35°24' E 139°39'1 0.3
2016-Sep-26 20:31N 35°24' E 139°40'0 0.0
2016-Sep-26 19:31N 35°24' E 139°40'0 0.0
2016-Sep-26 15:31N 35°24' E 139°40'0 0.0
2016-Sep-26 13:31N 35°24' E 139°40'0 0.0
2016-Sep-26 11:31N 35°24' E 139°40'0 0.0
2016-Sep-26 08:31N 35°24' E 139°40'1 0.2
2016-Sep-26 02:31N 35°24' E 139°39'0 0.0
2016-Sep-26 01:31N 35°24' E 139°39'0 0.0
2016-Sep-26 00:31N 35°24' E 139°39'0 0.0
2016-Sep-25 21:28N 35°24' E 139°39'0 0.0
2016-Sep-25 17:28N 35°24' E 139°39'0 0.0
2016-Sep-25 16:28N 35°24' E 139°39'0 0.0
2016-Sep-25 15:28N 35°24' E 139°39'0 0.0
2016-Sep-25 14:31N 35°24' E 139°39'2 1.3
2016-Sep-25 12:33N 35°24' E 139°42'7 6.9
2016-Sep-25 11:34N 35°30' E 139°45'1 0.5
2016-Sep-25 10:33N 35°30' E 139°44'0 0.0
2016-Sep-25 09:33N 35°30' E 139°44'0 0.0
2016-Sep-25 07:33N 35°30' E 139°44'0 0.0
2016-Sep-25 04:33N 35°30' E 139°44'0 0.0
2016-Sep-25 00:33N 35°30' E 139°44'6 3.1
2016-Sep-24 22:32N 35°24' E 139°45'0 0.0
2016-Sep-24 21:32N 35°24' E 139°45'0 0.0
2016-Sep-24 19:32N 35°24' E 139°45'0 0.0
2016-Sep-24 18:32N 35°24' E 139°45'0 0.0
2016-Sep-24 17:32N 35°24' E 139°45'0 0.0
2016-Sep-24 16:29N 35°24' E 139°45'0 0.0
2016-Sep-24 14:32N 35°24' E 139°45'6 2.8
2016-Sep-24 12:34N 35°24' E 139°39'0 0.0
2016-Sep-24 10:31N 35°24' E 139°39'0 0.0
2016-Sep-24 09:31N 35°24' E 139°39'0 0.0
2016-Sep-24 03:31N 35°24' E 139°39'0 0.0
2016-Sep-24 02:31N 35°24' E 139°39'0 0.0
2016-Sep-24 01:31N 35°24' E 139°39'0 0.0
2016-Sep-24 00:31N 35°24' E 139°39'0 0.0
2016-Sep-23 19:28N 35°24' E 139°39'0 0.0
2016-Sep-23 17:31N 35°24' E 139°39'0 0.0
2016-Sep-23 16:31N 35°24' E 139°39'0 0.0
2016-Sep-23 15:31N 35°24' E 139°39'0 0.0
2016-Sep-23 13:31N 35°24' E 139°39'0 0.0
2016-Sep-23 09:31N 35°24' E 139°39'0 0.0
2016-Sep-23 06:33N 35°24' E 139°39'7 3.4
2016-Sep-23 04:33N 35°30' E 139°43'0 0.0
2016-Sep-23 03:32N 35°30' E 139°43'0 0.0
2016-Sep-23 02:32N 35°30' E 139°43'0 0.0
2016-Sep-23 01:32N 35°30' E 139°43'0 0.0
2016-Sep-23 00:32N 35°30' E 139°43'0 0.0
2016-Sep-22 23:32N 35°30' E 139°43'7 2.4
2016-Sep-22 20:31N 35°22' E 139°44'4 0.5
2016-Sep-22 12:33N 35°24' E 139°39'10 1.2
2016-Sep-22 04:31N 35°26' E 139°51'0 0.0
2016-Sep-22 03:31N 35°26' E 139°51'0 0.0
2016-Sep-22 00:31N 35°26' E 139°51'0 0.0
2016-Sep-21 23:34N 35°26' E 139°51'0 0.0
2016-Sep-21 22:34N 35°26' E 139°51'0 0.0
2016-Sep-21 19:31N 35°26' E 139°51'0 0.0
2016-Sep-21 16:31N 35°26' E 139°51'0 0.0
2016-Sep-21 09:31N 35°26' E 139°51'0 0.0
2016-Sep-21 08:31N 35°26' E 139°51'0 0.0
2016-Sep-21 05:31N 35°27' E 139°51'0 0.0
2016-Sep-21 03:31N 35°26' E 139°51'0 0.0
2016-Sep-21 02:31N 35°26' E 139°51'0 0.0
2016-Sep-20 17:33N 35°27' E 139°51'0 0.0
2016-Sep-20 14:34N 35°26' E 139°51'0 0.0
2016-Sep-20 13:33N 35°26' E 139°51'0 0.0
2016-Sep-20 10:32N 35°26' E 139°51'0 0.0
2016-Sep-20 08:32N 35°27' E 139°51'0 0.1
2016-Sep-20 07:32N 35°27' E 139°50'0 0.0
2016-Sep-20 06:32N 35°27' E 139°50'7 1.7
2016-Sep-20 02:33N 35°30' E 139°43'0 0.0
2016-Sep-19 23:33N 35°30' E 139°43'  

Dump ship's entire track history